sensor_id;sensor_type;location;lat;lon;timestamp;P1;durP1;ratioP1;P2;durP2;ratioP2
20104;SDS011;10212;42.714;23.310;2022-07-23T00:03:45;12.57;;;6.47;;
20104;SDS011;10212;42.714;23.310;2022-07-23T00:08:45;11.70;;;6.20;;
20104;SDS011;10212;42.714;23.310;2022-07-23T00:13:46;11.93;;;6.43;;
20104;SDS011;10212;42.714;23.310;2022-07-23T00:18:46;10.18;;;6.57;;
20104;SDS011;10212;42.714;23.310;2022-07-23T00:23:47;9.85;;;6.25;;
20104;SDS011;10212;42.714;23.310;2022-07-23T00:28:47;14.10;;;6.80;;
20104;SDS011;10212;42.714;23.310;2022-07-23T00:33:48;9.10;;;6.40;;
20104;SDS011;10212;42.714;23.310;2022-07-23T00:38:49;14.53;;;6.83;;
20104;SDS011;10212;42.714;23.310;2022-07-23T00:43:49;12.77;;;6.80;;
20104;SDS011;10212;42.714;23.310;2022-07-23T00:48:50;12.05;;;6.97;;
20104;SDS011;10212;42.714;23.310;2022-07-23T00:53:51;16.00;;;7.17;;
20104;SDS011;10212;42.714;23.310;2022-07-23T00:58:51;11.35;;;7.00;;
20104;SDS011;10212;42.714;23.310;2022-07-23T01:03:52;11.15;;;7.18;;
20104;SDS011;10212;42.714;23.310;2022-07-23T01:08:55;12.35;;;7.60;;
20104;SDS011;10212;42.714;23.310;2022-07-23T01:13:56;12.50;;;6.90;;
20104;SDS011;10212;42.714;23.310;2022-07-23T01:18:56;10.65;;;6.82;;
20104;SDS011;10212;42.714;23.310;2022-07-23T01:23:57;9.82;;;7.25;;
20104;SDS011;10212;42.714;23.310;2022-07-23T01:28:58;11.23;;;7.30;;
20104;SDS011;10212;42.714;23.310;2022-07-23T01:33:58;12.18;;;7.30;;
20104;SDS011;10212;42.714;23.310;2022-07-23T01:38:59;9.52;;;7.13;;
20104;SDS011;10212;42.714;23.310;2022-07-23T01:44:00;14.43;;;7.32;;
20104;SDS011;10212;42.714;23.310;2022-07-23T01:49:01;13.52;;;7.40;;
20104;SDS011;10212;42.714;23.310;2022-07-23T01:54:01;12.27;;;7.03;;
20104;SDS011;10212;42.714;23.310;2022-07-23T01:59:02;17.95;;;6.88;;
20104;SDS011;10212;42.714;23.310;2022-07-23T02:04:02;14.10;;;7.18;;
20104;SDS011;10212;42.714;23.310;2022-07-23T02:09:03;11.50;;;7.20;;
20104;SDS011;10212;42.714;23.310;2022-07-23T02:14:04;11.70;;;7.25;;
20104;SDS011;10212;42.714;23.310;2022-07-23T02:19:04;11.75;;;7.40;;
20104;SDS011;10212;42.714;23.310;2022-07-23T02:24:06;10.57;;;6.97;;
20104;SDS011;10212;42.714;23.310;2022-07-23T02:29:06;11.93;;;8.15;;
20104;SDS011;10212;42.714;23.310;2022-07-23T02:34:07;14.93;;;7.80;;
20104;SDS011;10212;42.714;23.310;2022-07-23T02:39:11;14.18;;;8.13;;
20104;SDS011;10212;42.714;23.310;2022-07-23T02:44:12;14.25;;;7.38;;
20104;SDS011;10212;42.714;23.310;2022-07-23T02:49:13;12.43;;;7.47;;
20104;SDS011;10212;42.714;23.310;2022-07-23T02:54:13;11.73;;;7.78;;
20104;SDS011;10212;42.714;23.310;2022-07-23T02:59:14;13.95;;;7.93;;
20104;SDS011;10212;42.714;23.310;2022-07-23T03:04:14;15.45;;;9.18;;
20104;SDS011;10212;42.714;23.310;2022-07-23T03:09:15;13.95;;;8.77;;
20104;SDS011;10212;42.714;23.310;2022-07-23T03:14:16;11.43;;;8.60;;
20104;SDS011;10212;42.714;23.310;2022-07-23T03:19:16;14.77;;;8.57;;
20104;SDS011;10212;42.714;23.310;2022-07-23T03:24:17;11.02;;;8.85;;
20104;SDS011;10212;42.714;23.310;2022-07-23T03:29:18;16.80;;;8.52;;
20104;SDS011;10212;42.714;23.310;2022-07-23T03:34:18;15.43;;;9.25;;
20104;SDS011;10212;42.714;23.310;2022-07-23T03:39:19;12.82;;;8.85;;
20104;SDS011;10212;42.714;23.310;2022-07-23T03:44:20;17.52;;;9.30;;
20104;SDS011;10212;42.714;23.310;2022-07-23T03:49:20;16.75;;;8.90;;
20104;SDS011;10212;42.714;23.310;2022-07-23T03:54:21;14.75;;;9.00;;
20104;SDS011;10212;42.714;23.310;2022-07-23T03:59:22;14.10;;;8.55;;
20104;SDS011;10212;42.714;23.310;2022-07-23T04:04:22;13.93;;;8.88;;
20104;SDS011;10212;42.714;23.310;2022-07-23T04:09:23;14.15;;;9.32;;
20104;SDS011;10212;42.714;23.310;2022-07-23T04:14:23;11.80;;;9.25;;
20104;SDS011;10212;42.714;23.310;2022-07-23T04:19:30;14.85;;;8.75;;
20104;SDS011;10212;42.714;23.310;2022-07-23T04:24:30;13.82;;;9.48;;
20104;SDS011;10212;42.714;23.310;2022-07-23T04:29:31;26.75;;;18.48;;
20104;SDS011;10212;42.714;23.310;2022-07-23T04:34:31;17.25;;;9.40;;
20104;SDS011;10212;42.714;23.310;2022-07-23T04:39:32;14.40;;;9.48;;
20104;SDS011;10212;42.714;23.310;2022-07-23T04:44:33;17.25;;;9.70;;
20104;SDS011;10212;42.714;23.310;2022-07-23T04:49:33;21.20;;;10.55;;
20104;SDS011;10212;42.714;23.310;2022-07-23T04:54:34;16.15;;;9.85;;
20104;SDS011;10212;42.714;23.310;2022-07-23T04:59:34;19.52;;;10.25;;
20104;SDS011;10212;42.714;23.310;2022-07-23T05:04:35;19.27;;;9.90;;
20104;SDS011;10212;42.714;23.310;2022-07-23T05:09:35;14.38;;;10.00;;
20104;SDS011;10212;42.714;23.310;2022-07-23T05:14:36;17.53;;;9.90;;
20104;SDS011;10212;42.714;23.310;2022-07-23T05:19:36;16.77;;;10.48;;
20104;SDS011;10212;42.714;23.310;2022-07-23T05:24:37;22.92;;;10.75;;
20104;SDS011;10212;42.714;23.310;2022-07-23T05:29:37;18.77;;;10.38;;
20104;SDS011;10212;42.714;23.310;2022-07-23T05:34:38;16.97;;;10.27;;
20104;SDS011;10212;42.714;23.310;2022-07-23T05:39:38;17.27;;;9.57;;
20104;SDS011;10212;42.714;23.310;2022-07-23T05:44:39;16.67;;;9.32;;
20104;SDS011;10212;42.714;23.310;2022-07-23T05:49:39;17.42;;;10.40;;
20104;SDS011;10212;42.714;23.310;2022-07-23T05:54:40;13.82;;;9.55;;
20104;SDS011;10212;42.714;23.310;2022-07-23T05:59:40;20.38;;;10.30;;
20104;SDS011;10212;42.714;23.310;2022-07-23T06:04:41;17.00;;;9.67;;
20104;SDS011;10212;42.714;23.310;2022-07-23T06:09:42;21.83;;;10.43;;
20104;SDS011;10212;42.714;23.310;2022-07-23T06:14:42;19.45;;;10.57;;
20104;SDS011;10212;42.714;23.310;2022-07-23T06:19:43;20.15;;;11.02;;
20104;SDS011;10212;42.714;23.310;2022-07-23T06:24:44;20.80;;;10.98;;
20104;SDS011;10212;42.714;23.310;2022-07-23T06:29:45;20.13;;;11.30;;
20104;SDS011;10212;42.714;23.310;2022-07-23T06:34:45;15.15;;;10.80;;
20104;SDS011;10212;42.714;23.310;2022-07-23T06:39:46;24.15;;;12.63;;
20104;SDS011;10212;42.714;23.310;2022-07-23T06:44:47;22.20;;;11.38;;
20104;SDS011;10212;42.714;23.310;2022-07-23T06:49:47;40.70;;;11.32;;
20104;SDS011;10212;42.714;23.310;2022-07-23T06:54:48;22.92;;;11.23;;
20104;SDS011;10212;42.714;23.310;2022-07-23T06:59:49;26.02;;;12.13;;
20104;SDS011;10212;42.714;23.310;2022-07-23T07:04:49;18.95;;;11.27;;
20104;SDS011;10212;42.714;23.310;2022-07-23T07:09:50;19.85;;;11.55;;
20104;SDS011;10212;42.714;23.310;2022-07-23T07:14:51;17.52;;;10.10;;
20104;SDS011;10212;42.714;23.310;2022-07-23T07:19:51;18.35;;;9.52;;
20104;SDS011;10212;42.714;23.310;2022-07-23T07:24:51;19.50;;;10.57;;
20104;SDS011;10212;42.714;23.310;2022-07-23T07:29:52;17.38;;;8.35;;
20104;SDS011;10212;42.714;23.310;2022-07-23T07:34:53;12.90;;;9.45;;
20104;SDS011;10212;42.714;23.310;2022-07-23T07:39:53;12.38;;;7.47;;
20104;SDS011;10212;42.714;23.310;2022-07-23T07:44:54;13.55;;;7.70;;
20104;SDS011;10212;42.714;23.310;2022-07-23T07:49:54;16.25;;;8.40;;
20104;SDS011;10212;42.714;23.310;2022-07-23T07:54:56;16.70;;;9.07;;
20104;SDS011;10212;42.714;23.310;2022-07-23T07:59:56;14.65;;;8.20;;
20104;SDS011;10212;42.714;23.310;2022-07-23T08:04:57;28.58;;;9.15;;
20104;SDS011;10212;42.714;23.310;2022-07-23T08:10:00;25.08;;;16.55;;
20104;SDS011;10212;42.714;23.310;2022-07-23T08:15:01;11.45;;;7.90;;
20104;SDS011;10212;42.714;23.310;2022-07-23T08:20:02;12.30;;;7.75;;
20104;SDS011;10212;42.714;23.310;2022-07-23T08:25:04;13.88;;;7.78;;
20104;SDS011;10212;42.714;23.310;2022-07-23T08:30:05;14.27;;;7.90;;
20104;SDS011;10212;42.714;23.310;2022-07-23T08:35:06;13.45;;;7.72;;
20104;SDS011;10212;42.714;23.310;2022-07-23T08:40:08;15.85;;;8.18;;
20104;SDS011;10212;42.714;23.310;2022-07-23T08:45:09;17.50;;;9.27;;
20104;SDS011;10212;42.714;23.310;2022-07-23T08:50:11;14.45;;;7.95;;
20104;SDS011;10212;42.714;23.310;2022-07-23T08:55:12;13.52;;;7.68;;
20104;SDS011;10212;42.714;23.310;2022-07-23T09:00:12;17.80;;;9.30;;
20104;SDS011;10212;42.714;23.310;2022-07-23T09:05:14;16.33;;;7.97;;
20104;SDS011;10212;42.714;23.310;2022-07-23T09:10:15;17.75;;;9.13;;
20104;SDS011;10212;42.714;23.310;2022-07-23T09:15:15;13.95;;;7.57;;
20104;SDS011;10212;42.714;23.310;2022-07-23T09:20:16;14.75;;;7.60;;
20104;SDS011;10212;42.714;23.310;2022-07-23T09:25:18;12.38;;;7.13;;
20104;SDS011;10212;42.714;23.310;2022-07-23T09:30:20;13.02;;;7.63;;
20104;SDS011;10212;42.714;23.310;2022-07-23T09:35:33;17.92;;;7.75;;
20104;SDS011;10212;42.714;23.310;2022-07-23T09:40:47;11.70;;;7.45;;
20104;SDS011;10212;42.714;23.310;2022-07-23T09:51:24;16.75;;;7.72;;
20104;SDS011;10212;42.714;23.310;2022-07-23T09:56:32;13.95;;;7.10;;
20104;SDS011;10212;42.714;23.310;2022-07-23T10:01:34;11.00;;;6.78;;
20104;SDS011;10212;42.714;23.310;2022-07-23T10:06:34;14.05;;;7.10;;
20104;SDS011;10212;42.714;23.310;2022-07-23T10:11:36;10.73;;;6.35;;
20104;SDS011;10212;42.714;23.310;2022-07-23T10:16:36;14.95;;;6.65;;
20104;SDS011;10212;42.714;23.310;2022-07-23T10:21:45;15.03;;;6.60;;
20104;SDS011;10212;42.714;23.310;2022-07-23T10:26:52;12.40;;;7.28;;
20104;SDS011;10212;42.714;23.310;2022-07-23T10:32:05;14.82;;;8.18;;
20104;SDS011;10212;42.714;23.310;2022-07-23T10:37:17;10.68;;;6.60;;
20104;SDS011;10212;42.714;23.310;2022-07-23T10:47:33;12.82;;;7.00;;
20104;SDS011;10212;42.714;23.310;2022-07-23T10:53:09;13.52;;;6.43;;
20104;SDS011;10212;42.714;23.310;2022-07-23T10:58:09;12.68;;;6.15;;
20104;SDS011;10212;42.714;23.310;2022-07-23T11:03:29;13.30;;;6.00;;
20104;SDS011;10212;42.714;23.310;2022-07-23T11:08:32;20.75;;;6.60;;
20104;SDS011;10212;42.714;23.310;2022-07-23T11:13:46;12.30;;;6.00;;
20104;SDS011;10212;42.714;23.310;2022-07-23T11:29:23;16.15;;;6.50;;
20104;SDS011;10212;42.714;23.310;2022-07-23T11:39:42;14.13;;;6.38;;
20104;SDS011;10212;42.714;23.310;2022-07-23T11:44:46;14.57;;;5.63;;
20104;SDS011;10212;42.714;23.310;2022-07-23T11:55:03;15.35;;;6.30;;
20104;SDS011;10212;42.714;23.310;2022-07-23T12:00:10;17.17;;;7.47;;
20104;SDS011;10212;42.714;23.310;2022-07-23T12:05:20;13.60;;;5.43;;
20104;SDS011;10212;42.714;23.310;2022-07-23T12:15:42;19.38;;;6.00;;
20104;SDS011;10212;42.714;23.310;2022-07-23T12:20:46;16.17;;;7.07;;
20104;SDS011;10212;42.714;23.310;2022-07-23T12:25:55;26.40;;;6.10;;
20104;SDS011;10212;42.714;23.310;2022-07-23T12:31:01;20.30;;;5.78;;
20104;SDS011;10212;42.714;23.310;2022-07-23T12:36:03;15.48;;;5.47;;
20104;SDS011;10212;42.714;23.310;2022-07-23T12:41:07;16.15;;;5.68;;
20104;SDS011;10212;42.714;23.310;2022-07-23T12:46:13;24.05;;;11.25;;
20104;SDS011;10212;42.714;23.310;2022-07-23T12:51:15;16.98;;;7.53;;
20104;SDS011;10212;42.714;23.310;2022-07-23T12:56:26;13.43;;;6.03;;
20104;SDS011;10212;42.714;23.310;2022-07-23T13:01:29;15.13;;;5.82;;
20104;SDS011;10212;42.714;23.310;2022-07-23T13:06:41;19.02;;;5.82;;
20104;SDS011;10212;42.714;23.310;2022-07-23T13:11:46;14.15;;;5.80;;
20104;SDS011;10212;42.714;23.310;2022-07-23T13:16:48;21.05;;;6.20;;
20104;SDS011;10212;42.714;23.310;2022-07-23T13:26:50;15.20;;;5.80;;
20104;SDS011;10212;42.714;23.310;2022-07-23T13:31:52;18.67;;;6.18;;
20104;SDS011;10212;42.714;23.310;2022-07-23T13:36:56;14.88;;;5.47;;
20104;SDS011;10212;42.714;23.310;2022-07-23T13:42:00;13.10;;;5.50;;
20104;SDS011;10212;42.714;23.310;2022-07-23T13:47:00;16.15;;;5.30;;
20104;SDS011;10212;42.714;23.310;2022-07-23T13:52:01;15.38;;;5.38;;
20104;SDS011;10212;42.714;23.310;2022-07-23T13:57:05;17.33;;;6.20;;
20104;SDS011;10212;42.714;23.310;2022-07-23T14:02:06;14.63;;;5.25;;
20104;SDS011;10212;42.714;23.310;2022-07-23T14:07:07;16.25;;;5.88;;
20104;SDS011;10212;42.714;23.310;2022-07-23T14:12:11;13.65;;;5.22;;
20104;SDS011;10212;42.714;23.310;2022-07-23T14:17:11;11.95;;;4.88;;
20104;SDS011;10212;42.714;23.310;2022-07-23T14:22:12;15.88;;;5.65;;
20104;SDS011;10212;42.714;23.310;2022-07-23T14:27:16;12.70;;;5.50;;
20104;SDS011;10212;42.714;23.310;2022-07-23T14:32:17;14.10;;;5.22;;
20104;SDS011;10212;42.714;23.310;2022-07-23T14:37:18;16.98;;;6.18;;
20104;SDS011;10212;42.714;23.310;2022-07-23T14:42:18;14.95;;;5.53;;
20104;SDS011;10212;42.714;23.310;2022-07-23T14:47:19;15.45;;;5.80;;
20104;SDS011;10212;42.714;23.310;2022-07-23T14:52:20;12.60;;;5.30;;
20104;SDS011;10212;42.714;23.310;2022-07-23T14:57:21;14.27;;;5.47;;
20104;SDS011;10212;42.714;23.310;2022-07-23T15:02:21;12.02;;;5.30;;
20104;SDS011;10212;42.714;23.310;2022-07-23T15:07:22;15.05;;;5.75;;
20104;SDS011;10212;42.714;23.310;2022-07-23T15:12:23;16.23;;;5.55;;
20104;SDS011;10212;42.714;23.310;2022-07-23T15:17:25;12.63;;;5.18;;
20104;SDS011;10212;42.714;23.310;2022-07-23T15:22:26;15.10;;;5.05;;
20104;SDS011;10212;42.714;23.310;2022-07-23T15:27:28;14.73;;;5.40;;
20104;SDS011;10212;42.714;23.310;2022-07-23T15:32:28;8.50;;;5.03;;
20104;SDS011;10212;42.714;23.310;2022-07-23T15:37:29;12.87;;;5.67;;
20104;SDS011;10212;42.714;23.310;2022-07-23T15:42:29;13.48;;;5.82;;
20104;SDS011;10212;42.714;23.310;2022-07-23T15:47:30;9.63;;;6.30;;
20104;SDS011;10212;42.714;23.310;2022-07-23T15:52:30;13.37;;;5.70;;
20104;SDS011;10212;42.714;23.310;2022-07-23T15:57:30;14.40;;;5.70;;
20104;SDS011;10212;42.714;23.310;2022-07-23T16:02:31;13.17;;;6.67;;
20104;SDS011;10212;42.714;23.310;2022-07-23T16:07:31;10.77;;;5.60;;
20104;SDS011;10212;42.714;23.310;2022-07-23T16:12:34;16.27;;;9.02;;
20104;SDS011;10212;42.714;23.310;2022-07-23T16:17:34;13.40;;;6.40;;
20104;SDS011;10212;42.714;23.310;2022-07-23T16:22:35;12.85;;;6.65;;
20104;SDS011;10212;42.714;23.310;2022-07-23T16:27:36;17.23;;;6.50;;
20104;SDS011;10212;42.714;23.310;2022-07-23T16:32:40;15.65;;;8.07;;
20104;SDS011;10212;42.714;23.310;2022-07-23T16:37:41;11.02;;;7.60;;
20104;SDS011;10212;42.714;23.310;2022-07-23T16:42:42;15.55;;;6.80;;
20104;SDS011;10212;42.714;23.310;2022-07-23T16:47:42;14.97;;;8.40;;
20104;SDS011;10212;42.714;23.310;2022-07-23T16:52:43;41.97;;;18.98;;
20104;SDS011;10212;42.714;23.310;2022-07-23T16:57:44;17.13;;;8.45;;
20104;SDS011;10212;42.714;23.310;2022-07-23T17:02:44;17.98;;;8.57;;
20104;SDS011;10212;42.714;23.310;2022-07-23T17:07:45;16.17;;;8.67;;
20104;SDS011;10212;42.714;23.310;2022-07-23T17:12:46;17.55;;;8.77;;
20104;SDS011;10212;42.714;23.310;2022-07-23T17:17:49;14.93;;;8.50;;
20104;SDS011;10212;42.714;23.310;2022-07-23T17:22:50;23.80;;;8.73;;
20104;SDS011;10212;42.714;23.310;2022-07-23T17:27:51;14.20;;;7.68;;
20104;SDS011;10212;42.714;23.310;2022-07-23T17:32:51;14.70;;;7.75;;
20104;SDS011;10212;42.714;23.310;2022-07-23T17:37:51;17.13;;;8.80;;
20104;SDS011;10212;42.714;23.310;2022-07-23T17:42:52;13.88;;;9.23;;
20104;SDS011;10212;42.714;23.310;2022-07-23T17:47:52;20.20;;;8.93;;
20104;SDS011;10212;42.714;23.310;2022-07-23T17:52:54;19.20;;;9.90;;
20104;SDS011;10212;42.714;23.310;2022-07-23T17:57:56;22.63;;;9.43;;
20104;SDS011;10212;42.714;23.310;2022-07-23T18:02:58;18.73;;;8.07;;
20104;SDS011;10212;42.714;23.310;2022-07-23T18:07:59;15.30;;;8.82;;
20104;SDS011;10212;42.714;23.310;2022-07-23T18:13:03;21.42;;;11.80;;
20104;SDS011;10212;42.714;23.310;2022-07-23T18:18:05;18.13;;;9.23;;
20104;SDS011;10212;42.714;23.310;2022-07-23T18:23:06;19.55;;;10.80;;
20104;SDS011;10212;42.714;23.310;2022-07-23T18:28:06;19.02;;;10.23;;
20104;SDS011;10212;42.714;23.310;2022-07-23T18:33:07;16.77;;;8.70;;
20104;SDS011;10212;42.714;23.310;2022-07-23T18:38:08;21.38;;;9.30;;
20104;SDS011;10212;42.714;23.310;2022-07-23T18:43:09;21.95;;;10.55;;
20104;SDS011;10212;42.714;23.310;2022-07-23T18:48:09;25.70;;;11.70;;
20104;SDS011;10212;42.714;23.310;2022-07-23T18:53:10;51.53;;;19.88;;
20104;SDS011;10212;42.714;23.310;2022-07-23T18:58:10;31.40;;;12.50;;
20104;SDS011;10212;42.714;23.310;2022-07-23T19:03:11;28.23;;;10.38;;
20104;SDS011;10212;42.714;23.310;2022-07-23T19:08:12;23.40;;;11.95;;
20104;SDS011;10212;42.714;23.310;2022-07-23T19:13:12;23.50;;;12.02;;
20104;SDS011;10212;42.714;23.310;2022-07-23T19:18:13;29.08;;;13.57;;
20104;SDS011;10212;42.714;23.310;2022-07-23T19:23:13;27.13;;;11.88;;
20104;SDS011;10212;42.714;23.310;2022-07-23T19:28:14;24.60;;;11.93;;
20104;SDS011;10212;42.714;23.310;2022-07-23T19:33:15;28.38;;;12.48;;
20104;SDS011;10212;42.714;23.310;2022-07-23T19:38:15;23.00;;;11.93;;
20104;SDS011;10212;42.714;23.310;2022-07-23T19:43:16;24.70;;;11.80;;
20104;SDS011;10212;42.714;23.310;2022-07-23T19:48:17;24.02;;;13.30;;
20104;SDS011;10212;42.714;23.310;2022-07-23T19:53:17;21.88;;;12.35;;
20104;SDS011;10212;42.714;23.310;2022-07-23T19:58:18;29.98;;;13.90;;
20104;SDS011;10212;42.714;23.310;2022-07-23T20:03:19;25.05;;;14.43;;
20104;SDS011;10212;42.714;23.310;2022-07-23T20:08:20;31.85;;;15.80;;
20104;SDS011;10212;42.714;23.310;2022-07-23T20:13:21;41.00;;;16.48;;
20104;SDS011;10212;42.714;23.310;2022-07-23T20:18:21;31.13;;;15.10;;
20104;SDS011;10212;42.714;23.310;2022-07-23T20:23:22;27.20;;;11.50;;
20104;SDS011;10212;42.714;23.310;2022-07-23T20:28:23;24.90;;;11.48;;
20104;SDS011;10212;42.714;23.310;2022-07-23T20:33:23;25.05;;;11.43;;
20104;SDS011;10212;42.714;23.310;2022-07-23T20:38:24;19.60;;;10.15;;
20104;SDS011;10212;42.714;23.310;2022-07-23T20:43:24;19.20;;;11.00;;
20104;SDS011;10212;42.714;23.310;2022-07-23T20:48:25;23.10;;;9.48;;
20104;SDS011;10212;42.714;23.310;2022-07-23T20:53:26;19.95;;;9.10;;
20104;SDS011;10212;42.714;23.310;2022-07-23T20:58:26;17.43;;;9.13;;
20104;SDS011;10212;42.714;23.310;2022-07-23T21:03:27;24.42;;;11.15;;
20104;SDS011;10212;42.714;23.310;2022-07-23T21:08:28;24.63;;;11.20;;
20104;SDS011;10212;42.714;23.310;2022-07-23T21:13:28;20.30;;;11.30;;
20104;SDS011;10212;42.714;23.310;2022-07-23T21:18:29;17.77;;;11.00;;
20104;SDS011;10212;42.714;23.310;2022-07-23T21:23:29;21.10;;;11.15;;
20104;SDS011;10212;42.714;23.310;2022-07-23T21:28:30;19.27;;;10.25;;
20104;SDS011;10212;42.714;23.310;2022-07-23T21:33:31;28.95;;;10.13;;
20104;SDS011;10212;42.714;23.310;2022-07-23T21:38:32;23.70;;;10.32;;
20104;SDS011;10212;42.714;23.310;2022-07-23T21:43:33;21.52;;;9.88;;
20104;SDS011;10212;42.714;23.310;2022-07-23T21:48:33;19.02;;;10.02;;
20104;SDS011;10212;42.714;23.310;2022-07-23T21:53:34;20.85;;;10.13;;
20104;SDS011;10212;42.714;23.310;2022-07-23T21:58:34;18.38;;;9.52;;
20104;SDS011;10212;42.714;23.310;2022-07-23T22:03:35;17.52;;;9.73;;
20104;SDS011;10212;42.714;23.310;2022-07-23T22:08:36;19.17;;;9.70;;
20104;SDS011;10212;42.714;23.310;2022-07-23T22:13:36;20.40;;;9.90;;
20104;SDS011;10212;42.714;23.310;2022-07-23T22:18:37;19.30;;;9.87;;
20104;SDS011;10212;42.714;23.310;2022-07-23T22:23:37;25.13;;;9.68;;
20104;SDS011;10212;42.714;23.310;2022-07-23T22:28:38;18.88;;;9.38;;
20104;SDS011;10212;42.714;23.310;2022-07-23T22:33:38;18.05;;;9.30;;
20104;SDS011;10212;42.714;23.310;2022-07-23T22:38:39;15.85;;;9.05;;
20104;SDS011;10212;42.714;23.310;2022-07-23T22:43:39;18.02;;;9.45;;
20104;SDS011;10212;42.714;23.310;2022-07-23T22:48:40;18.40;;;9.20;;
20104;SDS011;10212;42.714;23.310;2022-07-23T22:53:41;17.15;;;8.98;;
20104;SDS011;10212;42.714;23.310;2022-07-23T22:58:41;20.13;;;9.05;;
20104;SDS011;10212;42.714;23.310;2022-07-23T23:03:42;22.05;;;9.50;;
20104;SDS011;10212;42.714;23.310;2022-07-23T23:08:43;14.50;;;9.38;;
20104;SDS011;10212;42.714;23.310;2022-07-23T23:13:43;22.33;;;9.07;;
20104;SDS011;10212;42.714;23.310;2022-07-23T23:18:44;19.73;;;9.30;;
20104;SDS011;10212;42.714;23.310;2022-07-23T23:23:45;19.13;;;9.80;;
20104;SDS011;10212;42.714;23.310;2022-07-23T23:28:48;19.38;;;9.07;;
20104;SDS011;10212;42.714;23.310;2022-07-23T23:33:49;14.98;;;8.75;;
20104;SDS011;10212;42.714;23.310;2022-07-23T23:38:49;16.13;;;8.68;;
20104;SDS011;10212;42.714;23.310;2022-07-23T23:43:50;15.87;;;8.43;;
20104;SDS011;10212;42.714;23.310;2022-07-23T23:48:51;15.02;;;8.90;;
20104;SDS011;10212;42.714;23.310;2022-07-23T23:53:52;17.30;;;8.73;;
20104;SDS011;10212;42.714;23.310;2022-07-23T23:58:53;17.40;;;8.90;;
